sensor_id;sensor_type;location;lat;lon;timestamp;P1;durP1;ratioP1;P2;durP2;ratioP2
4553;SDS011;2289;48.316;15.174;2023-08-06T00:01:00;1.67;;;0.80;;
4553;SDS011;2289;48.316;15.174;2023-08-06T00:03:30;2.00;;;0.80;;
4553;SDS011;2289;48.316;15.174;2023-08-06T00:05:59;0.80;;;0.70;;
4553;SDS011;2289;48.316;15.174;2023-08-06T00:08:29;8.87;;;1.60;;
4553;SDS011;2289;48.316;15.174;2023-08-06T00:10:59;2.43;;;0.90;;
4553;SDS011;2289;48.316;15.174;2023-08-06T00:13:28;5.67;;;1.53;;
4553;SDS011;2289;48.316;15.174;2023-08-06T00:16:07;7.33;;;1.30;;
4553;SDS011;2289;48.316;15.174;2023-08-06T00:18:38;1.20;;;0.90;;
4553;SDS011;2289;48.316;15.174;2023-08-06T00:21:08;0.90;;;0.70;;
4553;SDS011;2289;48.316;15.174;2023-08-06T00:23:39;1.33;;;1.00;;
4553;SDS011;2289;48.316;15.174;2023-08-06T00:26:25;1.13;;;0.90;;
4553;SDS011;2289;48.316;15.174;2023-08-06T00:28:54;0.83;;;0.83;;
4553;SDS011;2289;48.316;15.174;2023-08-06T00:31:26;2.60;;;1.10;;
4553;SDS011;2289;48.316;15.174;2023-08-06T00:33:57;1.63;;;1.40;;
4553;SDS011;2289;48.316;15.174;2023-08-06T00:36:26;2.47;;;1.20;;
4553;SDS011;2289;48.316;15.174;2023-08-06T00:38:55;4.97;;;1.20;;
4553;SDS011;2289;48.316;15.174;2023-08-06T00:41:24;1.60;;;0.90;;
4553;SDS011;2289;48.316;15.174;2023-08-06T00:43:53;0.80;;;0.80;;
4553;SDS011;2289;48.316;15.174;2023-08-06T00:46:22;2.40;;;0.90;;
4553;SDS011;2289;48.316;15.174;2023-08-06T00:48:51;1.00;;;1.00;;
4553;SDS011;2289;48.316;15.174;2023-08-06T00:51:21;1.70;;;0.97;;
4553;SDS011;2289;48.316;15.174;2023-08-06T00:53:50;2.40;;;1.17;;
4553;SDS011;2289;48.316;15.174;2023-08-06T00:56:20;3.27;;;1.30;;
4553;SDS011;2289;48.316;15.174;2023-08-06T00:58:49;1.90;;;1.00;;
4553;SDS011;2289;48.316;15.174;2023-08-06T01:01:18;0.90;;;0.80;;
4553;SDS011;2289;48.316;15.174;2023-08-06T01:03:47;1.30;;;1.20;;
4553;SDS011;2289;48.316;15.174;2023-08-06T01:06:16;1.63;;;0.83;;
4553;SDS011;2289;48.316;15.174;2023-08-06T01:08:53;1.10;;;1.00;;
4553;SDS011;2289;48.316;15.174;2023-08-06T01:11:26;1.20;;;1.03;;
4553;SDS011;2289;48.316;15.174;2023-08-06T01:14:02;2.03;;;1.30;;
4553;SDS011;2289;48.316;15.174;2023-08-06T01:16:34;1.40;;;0.93;;
4553;SDS011;2289;48.316;15.174;2023-08-06T01:19:04;1.87;;;1.20;;
4553;SDS011;2289;48.316;15.174;2023-08-06T01:21:34;0.90;;;0.70;;
4553;SDS011;2289;48.316;15.174;2023-08-06T01:24:03;5.23;;;1.70;;
4553;SDS011;2289;48.316;15.174;2023-08-06T01:26:42;2.50;;;1.27;;
4553;SDS011;2289;48.316;15.174;2023-08-06T01:29:14;1.33;;;1.17;;
4553;SDS011;2289;48.316;15.174;2023-08-06T01:31:47;2.30;;;1.00;;
4553;SDS011;2289;48.316;15.174;2023-08-06T01:34:23;3.03;;;1.37;;
4553;SDS011;2289;48.316;15.174;2023-08-06T01:36:56;5.60;;;1.53;;
4553;SDS011;2289;48.316;15.174;2023-08-06T01:39:26;5.50;;;1.20;;
4553;SDS011;2289;48.316;15.174;2023-08-06T01:41:56;1.57;;;1.47;;
4553;SDS011;2289;48.316;15.174;2023-08-06T01:44:26;4.23;;;1.43;;
4553;SDS011;2289;48.316;15.174;2023-08-06T01:46:56;1.47;;;1.30;;
4553;SDS011;2289;48.316;15.174;2023-08-06T01:49:26;1.20;;;1.10;;
4553;SDS011;2289;48.316;15.174;2023-08-06T01:51:58;1.87;;;1.43;;
4553;SDS011;2289;48.316;15.174;2023-08-06T01:54:27;1.43;;;1.30;;
4553;SDS011;2289;48.316;15.174;2023-08-06T01:56:57;1.47;;;1.17;;
4553;SDS011;2289;48.316;15.174;2023-08-06T01:59:26;5.87;;;1.43;;
4553;SDS011;2289;48.316;15.174;2023-08-06T02:01:55;1.43;;;1.33;;
4553;SDS011;2289;48.316;15.174;2023-08-06T02:04:24;1.43;;;1.33;;
4553;SDS011;2289;48.316;15.174;2023-08-06T02:06:54;1.90;;;1.07;;
4553;SDS011;2289;48.316;15.174;2023-08-06T02:09:24;3.13;;;1.70;;
4553;SDS011;2289;48.316;15.174;2023-08-06T02:11:53;3.27;;;1.30;;
4553;SDS011;2289;48.316;15.174;2023-08-06T02:14:21;1.70;;;1.50;;
4553;SDS011;2289;48.316;15.174;2023-08-06T02:16:51;2.43;;;1.30;;
4553;SDS011;2289;48.316;15.174;2023-08-06T02:19:18;2.60;;;1.50;;
4553;SDS011;2289;48.316;15.174;2023-08-06T02:21:47;5.03;;;1.90;;
4553;SDS011;2289;48.316;15.174;2023-08-06T02:24:17;2.20;;;1.53;;
4553;SDS011;2289;48.316;15.174;2023-08-06T02:26:50;3.03;;;1.50;;
4553;SDS011;2289;48.316;15.174;2023-08-06T02:29:22;1.60;;;1.50;;
4553;SDS011;2289;48.316;15.174;2023-08-06T02:31:51;1.73;;;1.63;;
4553;SDS011;2289;48.316;15.174;2023-08-06T02:34:21;4.37;;;1.50;;
4553;SDS011;2289;48.316;15.174;2023-08-06T02:36:50;1.80;;;1.20;;
4553;SDS011;2289;48.316;15.174;2023-08-06T02:39:20;2.10;;;1.57;;
4553;SDS011;2289;48.316;15.174;2023-08-06T02:41:51;1.50;;;1.40;;
4553;SDS011;2289;48.316;15.174;2023-08-06T02:44:21;1.83;;;1.30;;
4553;SDS011;2289;48.316;15.174;2023-08-06T02:46:49;1.63;;;1.10;;
4553;SDS011;2289;48.316;15.174;2023-08-06T02:49:19;1.57;;;1.40;;
4553;SDS011;2289;48.316;15.174;2023-08-06T02:51:48;2.13;;;1.33;;
4553;SDS011;2289;48.316;15.174;2023-08-06T02:54:20;4.57;;;1.50;;
4553;SDS011;2289;48.316;15.174;2023-08-06T02:56:51;3.50;;;1.63;;
4553;SDS011;2289;48.316;15.174;2023-08-06T02:59:20;1.60;;;1.50;;
4553;SDS011;2289;48.316;15.174;2023-08-06T03:01:49;1.60;;;1.50;;
4553;SDS011;2289;48.316;15.174;2023-08-06T03:04:19;5.20;;;2.10;;
4553;SDS011;2289;48.316;15.174;2023-08-06T03:06:49;1.73;;;1.63;;
4553;SDS011;2289;48.316;15.174;2023-08-06T03:09:18;1.80;;;1.33;;
4553;SDS011;2289;48.316;15.174;2023-08-06T03:11:47;6.33;;;2.00;;
4553;SDS011;2289;48.316;15.174;2023-08-06T03:14:18;2.33;;;1.40;;
4553;SDS011;2289;48.316;15.174;2023-08-06T03:16:47;3.20;;;1.87;;
4553;SDS011;2289;48.316;15.174;2023-08-06T03:19:16;2.33;;;1.50;;
4553;SDS011;2289;48.316;15.174;2023-08-06T03:21:45;3.33;;;1.23;;
4553;SDS011;2289;48.316;15.174;2023-08-06T03:24:14;3.00;;;1.50;;
4553;SDS011;2289;48.316;15.174;2023-08-06T03:26:43;2.83;;;2.07;;
4553;SDS011;2289;48.316;15.174;2023-08-06T03:29:11;2.20;;;1.70;;
4553;SDS011;2289;48.316;15.174;2023-08-06T03:31:42;1.57;;;1.30;;
4553;SDS011;2289;48.316;15.174;2023-08-06T03:34:10;1.60;;;1.50;;
4553;SDS011;2289;48.316;15.174;2023-08-06T03:36:39;1.60;;;1.40;;
4553;SDS011;2289;48.316;15.174;2023-08-06T03:39:08;4.87;;;1.50;;
4553;SDS011;2289;48.316;15.174;2023-08-06T03:41:37;2.53;;;1.37;;
4553;SDS011;2289;48.316;15.174;2023-08-06T03:44:06;4.20;;;1.70;;
4553;SDS011;2289;48.316;15.174;2023-08-06T03:46:35;2.30;;;1.37;;
4553;SDS011;2289;48.316;15.174;2023-08-06T03:49:06;2.30;;;1.83;;
4553;SDS011;2289;48.316;15.174;2023-08-06T03:51:35;2.50;;;1.30;;
4553;SDS011;2289;48.316;15.174;2023-08-06T03:54:04;1.80;;;1.70;;
4553;SDS011;2289;48.316;15.174;2023-08-06T03:56:33;2.90;;;1.50;;
4553;SDS011;2289;48.316;15.174;2023-08-06T03:59:02;1.77;;;1.67;;
4553;SDS011;2289;48.316;15.174;2023-08-06T04:01:31;1.50;;;1.40;;
4553;SDS011;2289;48.316;15.174;2023-08-06T04:04:00;3.83;;;2.00;;
4553;SDS011;2289;48.316;15.174;2023-08-06T04:06:32;2.57;;;1.80;;
4553;SDS011;2289;48.316;15.174;2023-08-06T04:09:02;2.40;;;1.77;;
4553;SDS011;2289;48.316;15.174;2023-08-06T04:11:31;2.03;;;1.90;;
4553;SDS011;2289;48.316;15.174;2023-08-06T04:14:00;2.03;;;1.93;;
4553;SDS011;2289;48.316;15.174;2023-08-06T04:16:29;2.70;;;1.70;;
4553;SDS011;2289;48.316;15.174;2023-08-06T04:18:59;1.83;;;1.70;;
4553;SDS011;2289;48.316;15.174;2023-08-06T04:21:29;3.03;;;1.83;;
4553;SDS011;2289;48.316;15.174;2023-08-06T04:23:59;1.67;;;1.57;;
4553;SDS011;2289;48.316;15.174;2023-08-06T04:26:28;3.50;;;2.20;;
4553;SDS011;2289;48.316;15.174;2023-08-06T04:29:00;3.57;;;1.90;;
4553;SDS011;2289;48.316;15.174;2023-08-06T04:31:30;4.40;;;1.63;;
4553;SDS011;2289;48.316;15.174;2023-08-06T04:33:59;1.80;;;1.57;;
4553;SDS011;2289;48.316;15.174;2023-08-06T04:36:30;3.03;;;1.70;;
4553;SDS011;2289;48.316;15.174;2023-08-06T04:38:59;2.97;;;1.77;;
4553;SDS011;2289;48.316;15.174;2023-08-06T04:41:28;2.17;;;1.97;;
4553;SDS011;2289;48.316;15.174;2023-08-06T04:43:57;2.50;;;1.60;;
4553;SDS011;2289;48.316;15.174;2023-08-06T04:46:26;2.30;;;1.63;;
4553;SDS011;2289;48.316;15.174;2023-08-06T04:48:56;3.23;;;1.93;;
4553;SDS011;2289;48.316;15.174;2023-08-06T04:51:25;2.40;;;1.47;;
4553;SDS011;2289;48.316;15.174;2023-08-06T04:53:56;1.50;;;1.40;;
4553;SDS011;2289;48.316;15.174;2023-08-06T04:56:25;2.07;;;1.70;;
4553;SDS011;2289;48.316;15.174;2023-08-06T04:58:54;4.30;;;1.80;;
4553;SDS011;2289;48.316;15.174;2023-08-06T05:01:24;2.30;;;2.10;;
4553;SDS011;2289;48.316;15.174;2023-08-06T05:03:53;6.40;;;1.73;;
4553;SDS011;2289;48.316;15.174;2023-08-06T05:06:23;4.50;;;1.87;;
4553;SDS011;2289;48.316;15.174;2023-08-06T05:08:52;3.07;;;2.63;;
4553;SDS011;2289;48.316;15.174;2023-08-06T05:11:23;2.03;;;1.47;;
4553;SDS011;2289;48.316;15.174;2023-08-06T05:13:52;2.77;;;1.80;;
4553;SDS011;2289;48.316;15.174;2023-08-06T05:16:22;3.07;;;2.07;;
4553;SDS011;2289;48.316;15.174;2023-08-06T05:18:51;7.30;;;2.00;;
4553;SDS011;2289;48.316;15.174;2023-08-06T05:21:20;6.03;;;2.50;;
4553;SDS011;2289;48.316;15.174;2023-08-06T05:23:49;6.50;;;2.67;;
4553;SDS011;2289;48.316;15.174;2023-08-06T05:26:18;6.63;;;1.80;;
4553;SDS011;2289;48.316;15.174;2023-08-06T05:28:49;3.47;;;1.53;;
4553;SDS011;2289;48.316;15.174;2023-08-06T05:31:18;2.07;;;1.87;;
4553;SDS011;2289;48.316;15.174;2023-08-06T05:33:47;1.47;;;1.37;;
4553;SDS011;2289;48.316;15.174;2023-08-06T05:36:17;1.53;;;0.97;;
4553;SDS011;2289;48.316;15.174;2023-08-06T05:38:46;0.93;;;0.93;;
4553;SDS011;2289;48.316;15.174;2023-08-06T05:41:15;2.10;;;1.20;;
4553;SDS011;2289;48.316;15.174;2023-08-06T05:43:43;1.40;;;1.10;;
4553;SDS011;2289;48.316;15.174;2023-08-06T05:46:14;1.73;;;1.30;;
4553;SDS011;2289;48.316;15.174;2023-08-06T05:48:43;1.70;;;1.33;;
4553;SDS011;2289;48.316;15.174;2023-08-06T05:51:12;1.27;;;1.17;;
4553;SDS011;2289;48.316;15.174;2023-08-06T05:53:43;1.37;;;1.27;;
4553;SDS011;2289;48.316;15.174;2023-08-06T05:56:13;1.83;;;1.30;;
4553;SDS011;2289;48.316;15.174;2023-08-06T05:58:42;1.77;;;1.67;;
4553;SDS011;2289;48.316;15.174;2023-08-06T06:01:14;4.17;;;1.83;;
4553;SDS011;2289;48.316;15.174;2023-08-06T06:03:43;11.70;;;2.40;;
4553;SDS011;2289;48.316;15.174;2023-08-06T06:06:13;5.40;;;1.83;;
4553;SDS011;2289;48.316;15.174;2023-08-06T06:08:43;2.03;;;1.20;;
4553;SDS011;2289;48.316;15.174;2023-08-06T06:11:13;2.93;;;1.13;;
4553;SDS011;2289;48.316;15.174;2023-08-06T06:13:42;3.03;;;1.53;;
4553;SDS011;2289;48.316;15.174;2023-08-06T06:16:11;1.43;;;1.33;;
4553;SDS011;2289;48.316;15.174;2023-08-06T06:18:40;1.30;;;1.20;;
4553;SDS011;2289;48.316;15.174;2023-08-06T06:21:09;1.53;;;1.43;;
4553;SDS011;2289;48.316;15.174;2023-08-06T06:23:38;1.90;;;1.50;;
4553;SDS011;2289;48.316;15.174;2023-08-06T06:26:07;4.10;;;1.47;;
4553;SDS011;2289;48.316;15.174;2023-08-06T06:28:36;1.27;;;1.17;;
4553;SDS011;2289;48.316;15.174;2023-08-06T06:31:05;1.50;;;1.40;;
4553;SDS011;2289;48.316;15.174;2023-08-06T06:33:34;1.30;;;1.10;;
4553;SDS011;2289;48.316;15.174;2023-08-06T06:36:05;1.50;;;1.40;;
4553;SDS011;2289;48.316;15.174;2023-08-06T06:38:36;3.60;;;1.60;;
4553;SDS011;2289;48.316;15.174;2023-08-06T06:41:05;2.73;;;1.73;;
4553;SDS011;2289;48.316;15.174;2023-08-06T06:43:34;7.77;;;2.10;;
4553;SDS011;2289;48.316;15.174;2023-08-06T06:46:04;11.93;;;1.93;;
4553;SDS011;2289;48.316;15.174;2023-08-06T06:48:33;5.67;;;1.70;;
4553;SDS011;2289;48.316;15.174;2023-08-06T06:51:02;1.93;;;1.73;;
4553;SDS011;2289;48.316;15.174;2023-08-06T06:53:32;3.30;;;2.57;;
4553;SDS011;2289;48.316;15.174;2023-08-06T06:56:02;4.57;;;1.53;;
4553;SDS011;2289;48.316;15.174;2023-08-06T06:58:32;2.57;;;1.50;;
4553;SDS011;2289;48.316;15.174;2023-08-06T07:01:01;1.30;;;1.20;;
4553;SDS011;2289;48.316;15.174;2023-08-06T07:03:30;1.97;;;1.67;;
4553;SDS011;2289;48.316;15.174;2023-08-06T07:05:59;1.60;;;1.50;;
4553;SDS011;2289;48.316;15.174;2023-08-06T07:08:28;2.13;;;1.80;;
4553;SDS011;2289;48.316;15.174;2023-08-06T07:11:02;2.23;;;1.77;;
4553;SDS011;2289;48.316;15.174;2023-08-06T07:13:31;4.13;;;2.50;;
4553;SDS011;2289;48.316;15.174;2023-08-06T07:16:00;2.00;;;1.90;;
4553;SDS011;2289;48.316;15.174;2023-08-06T07:18:29;1.73;;;1.63;;
4553;SDS011;2289;48.316;15.174;2023-08-06T07:20:58;2.53;;;1.83;;
4553;SDS011;2289;48.316;15.174;2023-08-06T07:23:27;2.00;;;1.83;;
4553;SDS011;2289;48.316;15.174;2023-08-06T07:25:56;2.83;;;2.20;;
4553;SDS011;2289;48.316;15.174;2023-08-06T07:28:27;1.97;;;1.83;;
4553;SDS011;2289;48.316;15.174;2023-08-06T07:30:56;2.00;;;1.90;;
4553;SDS011;2289;48.316;15.174;2023-08-06T07:33:25;2.07;;;1.60;;
4553;SDS011;2289;48.316;15.174;2023-08-06T07:35:54;2.63;;;2.00;;
4553;SDS011;2289;48.316;15.174;2023-08-06T07:38:23;1.70;;;1.60;;
4553;SDS011;2289;48.316;15.174;2023-08-06T07:40:53;2.27;;;1.80;;
4553;SDS011;2289;48.316;15.174;2023-08-06T07:43:22;1.90;;;1.70;;
4553;SDS011;2289;48.316;15.174;2023-08-06T07:45:57;2.53;;;1.87;;
4553;SDS011;2289;48.316;15.174;2023-08-06T07:48:27;5.70;;;2.10;;
4553;SDS011;2289;48.316;15.174;2023-08-06T07:50:56;4.40;;;1.90;;
4553;SDS011;2289;48.316;15.174;2023-08-06T07:53:26;2.03;;;1.50;;
4553;SDS011;2289;48.316;15.174;2023-08-06T07:55:56;4.33;;;1.67;;
4553;SDS011;2289;48.316;15.174;2023-08-06T07:58:27;2.47;;;1.87;;
4553;SDS011;2289;48.316;15.174;2023-08-06T08:00:56;1.97;;;1.63;;
4553;SDS011;2289;48.316;15.174;2023-08-06T08:03:28;2.60;;;2.23;;
4553;SDS011;2289;48.316;15.174;2023-08-06T08:05:57;2.53;;;2.33;;
4553;SDS011;2289;48.316;15.174;2023-08-06T08:08:26;2.50;;;2.30;;
4553;SDS011;2289;48.316;15.174;2023-08-06T08:10:55;2.50;;;2.30;;
4553;SDS011;2289;48.316;15.174;2023-08-06T08:13:28;1.80;;;1.63;;
4553;SDS011;2289;48.316;15.174;2023-08-06T08:15:57;2.47;;;2.27;;
4553;SDS011;2289;48.316;15.174;2023-08-06T08:18:27;2.97;;;2.70;;
4553;SDS011;2289;48.316;15.174;2023-08-06T08:20:58;2.83;;;2.60;;
4553;SDS011;2289;48.316;15.174;2023-08-06T08:23:27;4.87;;;2.50;;
4553;SDS011;2289;48.316;15.174;2023-08-06T08:25:58;15.97;;;2.57;;
4553;SDS011;2289;48.316;15.174;2023-08-06T08:28:30;2.83;;;2.63;;
4553;SDS011;2289;48.316;15.174;2023-08-06T08:30:59;2.60;;;2.23;;
4553;SDS011;2289;48.316;15.174;2023-08-06T08:33:27;2.83;;;2.17;;
4553;SDS011;2289;48.316;15.174;2023-08-06T08:35:56;2.13;;;1.93;;
4553;SDS011;2289;48.316;15.174;2023-08-06T08:38:25;2.30;;;2.10;;
4553;SDS011;2289;48.316;15.174;2023-08-06T08:40:54;4.13;;;2.40;;
4553;SDS011;2289;48.316;15.174;2023-08-06T08:43:23;2.30;;;2.07;;
4553;SDS011;2289;48.316;15.174;2023-08-06T08:45:53;2.17;;;1.90;;
4553;SDS011;2289;48.316;15.174;2023-08-06T08:48:25;2.13;;;1.93;;
4553;SDS011;2289;48.316;15.174;2023-08-06T08:50:54;3.47;;;2.20;;
4553;SDS011;2289;48.316;15.174;2023-08-06T08:53:24;2.80;;;1.90;;
4553;SDS011;2289;48.316;15.174;2023-08-06T08:55:53;6.70;;;2.43;;
4553;SDS011;2289;48.316;15.174;2023-08-06T08:58:23;4.10;;;2.27;;
4553;SDS011;2289;48.316;15.174;2023-08-06T09:00:53;3.20;;;1.87;;
4553;SDS011;2289;48.316;15.174;2023-08-06T09:03:22;2.53;;;2.10;;
4553;SDS011;2289;48.316;15.174;2023-08-06T09:05:53;2.00;;;1.90;;
4553;SDS011;2289;48.316;15.174;2023-08-06T09:08:23;3.70;;;1.97;;
4553;SDS011;2289;48.316;15.174;2023-08-06T09:10:55;2.10;;;1.90;;
4553;SDS011;2289;48.316;15.174;2023-08-06T09:13:25;2.40;;;2.03;;
4553;SDS011;2289;48.316;15.174;2023-08-06T09:15:55;1.90;;;1.80;;
4553;SDS011;2289;48.316;15.174;2023-08-06T09:18:25;1.67;;;1.57;;
4553;SDS011;2289;48.316;15.174;2023-08-06T09:20:55;2.03;;;1.90;;
4553;SDS011;2289;48.316;15.174;2023-08-06T09:23:27;2.33;;;2.00;;
4553;SDS011;2289;48.316;15.174;2023-08-06T09:25:58;1.90;;;1.80;;
4553;SDS011;2289;48.316;15.174;2023-08-06T09:28:36;2.20;;;2.00;;
4553;SDS011;2289;48.316;15.174;2023-08-06T09:31:13;1.93;;;1.70;;
4553;SDS011;2289;48.316;15.174;2023-08-06T09:33:42;5.00;;;2.10;;
4553;SDS011;2289;48.316;15.174;2023-08-06T09:36:12;2.10;;;1.70;;
4553;SDS011;2289;48.316;15.174;2023-08-06T09:38:41;1.63;;;1.53;;
4553;SDS011;2289;48.316;15.174;2023-08-06T09:41:10;1.73;;;1.53;;
4553;SDS011;2289;48.316;15.174;2023-08-06T09:43:39;1.60;;;1.50;;
4553;SDS011;2289;48.316;15.174;2023-08-06T09:46:14;1.70;;;1.60;;
4553;SDS011;2289;48.316;15.174;2023-08-06T09:48:47;2.87;;;1.83;;
4553;SDS011;2289;48.316;15.174;2023-08-06T09:51:17;2.07;;;1.97;;
4553;SDS011;2289;48.316;15.174;2023-08-06T09:53:47;2.80;;;2.20;;
4553;SDS011;2289;48.316;15.174;2023-08-06T09:56:17;2.70;;;2.30;;
4553;SDS011;2289;48.316;15.174;2023-08-06T09:58:47;1.77;;;1.60;;
4553;SDS011;2289;48.316;15.174;2023-08-06T10:01:19;2.00;;;1.90;;
4553;SDS011;2289;48.316;15.174;2023-08-06T10:03:48;2.23;;;1.97;;
4553;SDS011;2289;48.316;15.174;2023-08-06T10:06:18;2.30;;;2.10;;
4553;SDS011;2289;48.316;15.174;2023-08-06T10:08:48;2.73;;;2.53;;
4553;SDS011;2289;48.316;15.174;2023-08-06T10:11:17;2.77;;;2.00;;
4553;SDS011;2289;48.316;15.174;2023-08-06T10:13:48;2.30;;;2.20;;
4553;SDS011;2289;48.316;15.174;2023-08-06T10:16:19;2.47;;;2.27;;
4553;SDS011;2289;48.316;15.174;2023-08-06T10:18:49;2.20;;;1.80;;
4553;SDS011;2289;48.316;15.174;2023-08-06T10:33:23;3.40;;;2.70;;
4553;SDS011;2289;48.316;15.174;2023-08-06T10:35:52;3.37;;;3.10;;
4553;SDS011;2289;48.316;15.174;2023-08-06T10:38:31;2.90;;;2.13;;
4553;SDS011;2289;48.316;15.174;2023-08-06T10:41:01;2.80;;;2.47;;
4553;SDS011;2289;48.316;15.174;2023-08-06T10:43:32;2.60;;;2.37;;
4553;SDS011;2289;48.316;15.174;2023-08-06T10:46:03;3.20;;;2.90;;
4553;SDS011;2289;48.316;15.174;2023-08-06T10:48:44;3.00;;;2.60;;
4553;SDS011;2289;48.316;15.174;2023-08-06T10:51:14;3.20;;;2.90;;
4553;SDS011;2289;48.316;15.174;2023-08-06T10:53:44;2.60;;;2.40;;
4553;SDS011;2289;48.316;15.174;2023-08-06T10:56:15;2.73;;;2.30;;
4553;SDS011;2289;48.316;15.174;2023-08-06T10:58:45;5.43;;;2.93;;
4553;SDS011;2289;48.316;15.174;2023-08-06T11:01:15;3.33;;;2.33;;
4553;SDS011;2289;48.316;15.174;2023-08-06T11:03:46;5.83;;;2.90;;
4553;SDS011;2289;48.316;15.174;2023-08-06T11:06:17;2.50;;;2.23;;
4553;SDS011;2289;48.316;15.174;2023-08-06T11:08:47;2.40;;;2.27;;
4553;SDS011;2289;48.316;15.174;2023-08-06T11:11:17;3.10;;;2.90;;
4553;SDS011;2289;48.316;15.174;2023-08-06T11:13:47;4.10;;;2.43;;
4553;SDS011;2289;48.316;15.174;2023-08-06T11:16:18;2.47;;;2.27;;
4553;SDS011;2289;48.316;15.174;2023-08-06T11:18:49;3.90;;;2.60;;
4553;SDS011;2289;48.316;15.174;2023-08-06T11:21:20;4.53;;;3.10;;
4553;SDS011;2289;48.316;15.174;2023-08-06T11:23:52;2.40;;;2.20;;
4553;SDS011;2289;48.316;15.174;2023-08-06T11:26:22;2.93;;;2.70;;
4553;SDS011;2289;48.316;15.174;2023-08-06T11:28:51;3.47;;;2.53;;
4553;SDS011;2289;48.316;15.174;2023-08-06T11:31:20;3.83;;;2.60;;
4553;SDS011;2289;48.316;15.174;2023-08-06T11:33:51;3.20;;;2.77;;
4553;SDS011;2289;48.316;15.174;2023-08-06T11:36:28;3.57;;;3.10;;
4553;SDS011;2289;48.316;15.174;2023-08-06T11:39:18;2.50;;;2.30;;
4553;SDS011;2289;48.316;15.174;2023-08-06T11:41:48;2.93;;;2.50;;
4553;SDS011;2289;48.316;15.174;2023-08-06T11:44:19;3.80;;;2.30;;
4553;SDS011;2289;48.316;15.174;2023-08-06T11:46:49;3.43;;;2.47;;
4553;SDS011;2289;48.316;15.174;2023-08-06T11:49:22;6.60;;;2.60;;
4553;SDS011;2289;48.316;15.174;2023-08-06T11:52:09;3.10;;;2.87;;
4553;SDS011;2289;48.316;15.174;2023-08-06T11:54:39;2.13;;;1.97;;
4553;SDS011;2289;48.316;15.174;2023-08-06T11:57:12;2.70;;;2.40;;
4553;SDS011;2289;48.316;15.174;2023-08-06T11:59:44;3.70;;;2.43;;
4553;SDS011;2289;48.316;15.174;2023-08-06T12:02:16;2.70;;;2.50;;
4553;SDS011;2289;48.316;15.174;2023-08-06T12:05:00;3.23;;;1.83;;
4553;SDS011;2289;48.316;15.174;2023-08-06T12:07:32;2.20;;;2.00;;
4553;SDS011;2289;48.316;15.174;2023-08-06T12:10:04;2.63;;;2.43;;
4553;SDS011;2289;48.316;15.174;2023-08-06T12:12:34;2.27;;;2.07;;
4553;SDS011;2289;48.316;15.174;2023-08-06T12:15:06;3.77;;;2.00;;
4553;SDS011;2289;48.316;15.174;2023-08-06T12:17:37;4.60;;;2.10;;
4553;SDS011;2289;48.316;15.174;2023-08-06T12:20:09;2.53;;;2.33;;
4553;SDS011;2289;48.316;15.174;2023-08-06T12:22:40;3.53;;;2.20;;
4553;SDS011;2289;48.316;15.174;2023-08-06T12:25:13;7.57;;;2.10;;
4553;SDS011;2289;48.316;15.174;2023-08-06T12:27:43;5.23;;;2.10;;
4553;SDS011;2289;48.316;15.174;2023-08-06T12:30:13;1.43;;;1.33;;
4553;SDS011;2289;48.316;15.174;2023-08-06T12:32:45;6.43;;;1.50;;
4553;SDS011;2289;48.316;15.174;2023-08-06T12:35:16;1.20;;;1.10;;
4553;SDS011;2289;48.316;15.174;2023-08-06T12:37:47;1.53;;;1.37;;
4553;SDS011;2289;48.316;15.174;2023-08-06T12:40:19;6.97;;;2.10;;
4553;SDS011;2289;48.316;15.174;2023-08-06T12:43:02;2.53;;;2.03;;
4553;SDS011;2289;48.316;15.174;2023-08-06T12:45:32;2.60;;;1.87;;
4553;SDS011;2289;48.316;15.174;2023-08-06T12:48:06;2.10;;;1.13;;
4553;SDS011;2289;48.316;15.174;2023-08-06T12:50:39;10.20;;;2.20;;
4553;SDS011;2289;48.316;15.174;2023-08-06T12:53:08;2.63;;;1.33;;
4553;SDS011;2289;48.316;15.174;2023-08-06T12:55:38;1.67;;;1.53;;
4553;SDS011;2289;48.316;15.174;2023-08-06T12:58:07;1.40;;;1.30;;
4553;SDS011;2289;48.316;15.174;2023-08-06T13:00:38;4.50;;;1.57;;
4553;SDS011;2289;48.316;15.174;2023-08-06T13:03:08;1.60;;;1.23;;
4553;SDS011;2289;48.316;15.174;2023-08-06T13:05:39;1.17;;;1.07;;
4553;SDS011;2289;48.316;15.174;2023-08-06T13:08:09;3.67;;;1.73;;
4553;SDS011;2289;48.316;15.174;2023-08-06T13:10:45;1.20;;;1.10;;
4553;SDS011;2289;48.316;15.174;2023-08-06T13:13:21;1.00;;;0.90;;
4553;SDS011;2289;48.316;15.174;2023-08-06T13:15:54;2.70;;;1.30;;
4553;SDS011;2289;48.316;15.174;2023-08-06T13:18:28;2.50;;;1.60;;
4553;SDS011;2289;48.316;15.174;2023-08-06T13:21:00;1.30;;;1.10;;
4553;SDS011;2289;48.316;15.174;2023-08-06T13:23:31;1.50;;;1.10;;
4553;SDS011;2289;48.316;15.174;2023-08-06T13:26:04;1.63;;;1.10;;
4553;SDS011;2289;48.316;15.174;2023-08-06T13:28:37;1.60;;;1.40;;
4553;SDS011;2289;48.316;15.174;2023-08-06T13:31:06;0.80;;;0.80;;
4553;SDS011;2289;48.316;15.174;2023-08-06T13:33:37;1.10;;;1.00;;
4553;SDS011;2289;48.316;15.174;2023-08-06T13:36:07;1.30;;;1.20;;
4553;SDS011;2289;48.316;15.174;2023-08-06T13:38:37;1.30;;;1.10;;
4553;SDS011;2289;48.316;15.174;2023-08-06T13:41:10;1.47;;;1.00;;
4553;SDS011;2289;48.316;15.174;2023-08-06T13:43:40;3.73;;;1.20;;
4553;SDS011;2289;48.316;15.174;2023-08-06T13:46:10;2.70;;;1.40;;
4553;SDS011;2289;48.316;15.174;2023-08-06T13:48:43;1.23;;;1.10;;
4553;SDS011;2289;48.316;15.174;2023-08-06T13:51:16;0.93;;;0.90;;
4553;SDS011;2289;48.316;15.174;2023-08-06T13:53:49;1.40;;;1.30;;
4553;SDS011;2289;48.316;15.174;2023-08-06T13:56:19;1.83;;;1.10;;
4553;SDS011;2289;48.316;15.174;2023-08-06T13:58:50;1.00;;;0.70;;
4553;SDS011;2289;48.316;15.174;2023-08-06T14:01:18;1.10;;;1.00;;
4553;SDS011;2289;48.316;15.174;2023-08-06T14:03:58;4.43;;;1.40;;
4553;SDS011;2289;48.316;15.174;2023-08-06T14:06:29;3.10;;;1.07;;
4553;SDS011;2289;48.316;15.174;2023-08-06T14:08:58;1.87;;;0.90;;
4553;SDS011;2289;48.316;15.174;2023-08-06T14:11:27;2.60;;;1.13;;
4553;SDS011;2289;48.316;15.174;2023-08-06T14:13:56;0.70;;;0.70;;
4553;SDS011;2289;48.316;15.174;2023-08-06T14:16:28;1.10;;;1.00;;
4553;SDS011;2289;48.316;15.174;2023-08-06T14:18:57;1.47;;;0.90;;
4553;SDS011;2289;48.316;15.174;2023-08-06T14:21:26;6.00;;;0.80;;
4553;SDS011;2289;48.316;15.174;2023-08-06T14:23:57;1.67;;;0.93;;
4553;SDS011;2289;48.316;15.174;2023-08-06T14:26:26;2.27;;;0.93;;
4553;SDS011;2289;48.316;15.174;2023-08-06T14:28:55;5.90;;;0.80;;
4553;SDS011;2289;48.316;15.174;2023-08-06T14:31:24;4.43;;;1.10;;
4553;SDS011;2289;48.316;15.174;2023-08-06T14:33:54;1.60;;;1.00;;
4553;SDS011;2289;48.316;15.174;2023-08-06T14:36:23;3.83;;;0.80;;
4553;SDS011;2289;48.316;15.174;2023-08-06T14:38:54;1.83;;;0.80;;
4553;SDS011;2289;48.316;15.174;2023-08-06T14:41:27;0.80;;;0.60;;
4553;SDS011;2289;48.316;15.174;2023-08-06T14:43:56;0.60;;;0.60;;
4553;SDS011;2289;48.316;15.174;2023-08-06T14:46:29;0.60;;;0.60;;
4553;SDS011;2289;48.316;15.174;2023-08-06T14:48:57;0.70;;;0.70;;
4553;SDS011;2289;48.316;15.174;2023-08-06T14:51:27;0.60;;;0.60;;
4553;SDS011;2289;48.316;15.174;2023-08-06T14:53:57;0.70;;;0.60;;
4553;SDS011;2289;48.316;15.174;2023-08-06T14:56:26;0.73;;;0.70;;
4553;SDS011;2289;48.316;15.174;2023-08-06T14:58:55;2.00;;;0.87;;
4553;SDS011;2289;48.316;15.174;2023-08-06T15:01:24;0.60;;;0.50;;
4553;SDS011;2289;48.316;15.174;2023-08-06T15:03:53;0.80;;;0.80;;
4553;SDS011;2289;48.316;15.174;2023-08-06T15:06:23;1.53;;;1.43;;
4553;SDS011;2289;48.316;15.174;2023-08-06T15:08:55;1.43;;;1.00;;
4553;SDS011;2289;48.316;15.174;2023-08-06T15:11:29;1.03;;;0.90;;
4553;SDS011;2289;48.316;15.174;2023-08-06T15:13:58;1.63;;;0.80;;
4553;SDS011;2289;48.316;15.174;2023-08-06T15:16:27;0.70;;;0.70;;
4553;SDS011;2289;48.316;15.174;2023-08-06T15:18:57;1.57;;;0.67;;
4553;SDS011;2289;48.316;15.174;2023-08-06T15:21:25;0.80;;;0.70;;
4553;SDS011;2289;48.316;15.174;2023-08-06T15:23:55;1.00;;;0.70;;
4553;SDS011;2289;48.316;15.174;2023-08-06T15:26:24;0.80;;;0.70;;
4553;SDS011;2289;48.316;15.174;2023-08-06T15:28:54;3.37;;;0.80;;
4553;SDS011;2289;48.316;15.174;2023-08-06T15:31:23;0.90;;;0.70;;